createdAt,value
2018-05-06T00:00:10.276Z,22.60
2018-05-06T00:02:39.855Z,22.50
2018-05-06T00:05:09.370Z,22.40
2018-05-06T00:07:38.990Z,22.40
2018-05-06T00:10:08.499Z,22.30
2018-05-06T00:12:38.850Z,22.20
2018-05-06T00:15:08.581Z,22.10
2018-05-06T00:17:38.079Z,22.00
2018-05-06T00:20:07.775Z,22.00
2018-05-06T00:22:37.209Z,21.90
2018-05-06T00:25:06.724Z,21.80
2018-05-06T00:27:36.245Z,21.70
2018-05-06T00:30:05.976Z,21.70
2018-05-06T00:32:36.430Z,21.60
2018-05-06T00:35:05.984Z,21.60
2018-05-06T00:37:35.412Z,21.50
2018-05-06T00:40:05.197Z,21.50
2018-05-06T00:42:34.857Z,21.40
2018-05-06T00:45:04.397Z,21.40
2018-05-06T00:47:33.917Z,21.30
2018-05-06T00:50:04.937Z,21.20
2018-05-06T00:52:34.649Z,21.20
2018-05-06T00:55:04.155Z,21.20
2018-05-06T00:57:33.618Z,21.10
2018-05-06T01:00:04.116Z,21.10
2018-05-06T01:02:33.571Z,21.00
2018-05-06T01:05:03.997Z,21.00
2018-05-06T01:07:34.303Z,20.90
2018-05-06T01:10:03.884Z,20.90
2018-05-06T01:12:33.337Z,20.90
2018-05-06T01:15:04.660Z,20.80
2018-05-06T01:17:34.125Z,20.70
2018-05-06T01:23:25.094Z,20.70
2018-05-06T01:25:54.608Z,20.70
2018-05-06T01:28:24.965Z,20.70
2018-05-06T01:30:54.381Z,20.60
2018-05-06T01:33:23.993Z,20.60
2018-05-06T01:35:53.597Z,20.60
2018-05-06T01:38:23.103Z,20.60
2018-05-06T01:40:52.526Z,20.50
2018-05-06T01:43:22.212Z,20.50
2018-05-06T01:45:52.517Z,20.50
2018-05-06T01:48:22.849Z,20.40
2018-05-06T01:50:52.569Z,20.40
2018-05-06T01:53:22.095Z,20.40
2018-05-06T01:55:51.820Z,20.40
2018-05-06T01:58:21.334Z,20.40
2018-05-06T02:00:51.763Z,20.30
2018-05-06T02:03:21.407Z,20.20
2018-05-06T02:05:50.942Z,20.30
2018-05-06T02:08:20.328Z,20.20
2018-05-06T02:10:50.000Z,20.20
2018-05-06T02:13:19.495Z,20.10
2018-05-06T02:15:50.630Z,20.10
2018-05-06T02:18:21.016Z,20.00
2018-05-06T02:20:51.404Z,20.00
2018-05-06T02:23:22.193Z,19.90
2018-05-06T02:25:52.140Z,19.90
2018-05-06T02:28:22.260Z,19.80
2018-05-06T02:30:52.077Z,19.80
2018-05-06T02:33:21.740Z,19.70
2018-05-06T02:35:51.349Z,19.70
2018-05-06T02:38:20.842Z,19.60
2018-05-06T02:40:50.400Z,19.60
2018-05-06T02:43:19.845Z,19.60
2018-05-06T02:45:49.520Z,19.50
2018-05-06T02:48:19.832Z,19.50
2018-05-06T02:50:49.314Z,19.50
2018-05-06T02:53:18.774Z,19.50
2018-05-06T02:55:48.349Z,19.40
2018-05-06T02:58:17.831Z,19.40
2018-05-06T03:00:47.321Z,19.40
2018-05-06T03:03:16.684Z,19.40
2018-05-06T03:05:47.937Z,19.30
2018-05-06T03:08:17.343Z,19.20
2018-05-06T03:10:46.865Z,19.20
2018-05-06T03:13:16.283Z,19.20
2018-05-06T03:15:47.227Z,19.10
2018-05-06T03:18:19.537Z,19.10
2018-05-06T03:20:52.346Z,19.10
2018-05-06T03:23:23.855Z,19.10
2018-05-06T03:25:53.643Z,19.10
2018-05-06T03:28:29.610Z,19.10
2018-05-06T03:31:01.085Z,19.00
2018-05-06T03:33:32.633Z,18.90
2018-05-06T03:36:08.471Z,18.80
2018-05-06T03:38:42.404Z,18.80
2018-05-06T03:41:11.983Z,18.80
2018-05-06T03:47:04.259Z,18.70
2018-05-06T03:49:34.219Z,18.60
2018-05-06T03:52:08.211Z,18.70
2018-05-06T03:54:37.499Z,18.60
2018-05-06T03:57:19.369Z,18.50
2018-05-06T03:59:59.989Z,18.40
2018-05-06T04:02:33.260Z,18.40
2018-05-06T04:05:04.210Z,18.30
2018-05-06T04:07:38.343Z,18.30
2018-05-06T04:10:09.373Z,18.40
2018-05-06T04:12:38.666Z,18.30
2018-05-06T04:15:09.605Z,18.30
2018-05-06T04:17:38.884Z,18.30
2018-05-06T04:20:19.683Z,18.30
2018-05-06T04:22:48.942Z,18.20
2018-05-06T04:25:18.248Z,18.20
2018-05-06T04:27:48.279Z,18.10
2018-05-06T04:30:18.547Z,18.10
2018-05-06T04:32:48.067Z,18.10
2018-05-06T04:35:23.076Z,18.10
2018-05-06T04:37:52.403Z,18.10
2018-05-06T04:40:21.908Z,18.10
2018-05-06T04:42:51.820Z,18.00
2018-05-06T04:45:21.248Z,18.00
2018-05-06T04:47:51.635Z,18.00
2018-05-06T04:50:20.920Z,18.00
2018-05-06T04:52:51.101Z,17.90
2018-05-06T04:55:24.502Z,17.90
2018-05-06T04:57:53.975Z,17.90
2018-05-06T05:00:23.408Z,17.90
2018-05-06T05:02:52.643Z,17.80
2018-05-06T05:05:21.976Z,17.80
2018-05-06T05:07:51.238Z,17.80
2018-05-06T05:10:20.537Z,17.80
2018-05-06T05:12:49.966Z,17.80
2018-05-06T05:15:19.241Z,17.80
2018-05-06T05:17:48.524Z,17.70
2018-05-06T05:20:18.806Z,17.70
2018-05-06T05:22:48.032Z,17.60
2018-05-06T05:25:17.334Z,17.60
2018-05-06T05:27:47.419Z,17.60
2018-05-06T05:30:16.666Z,17.60
2018-05-06T05:32:47.060Z,17.60
2018-05-06T05:35:16.310Z,17.60
2018-05-06T05:37:45.674Z,17.60
2018-05-06T05:40:15.039Z,17.60
2018-05-06T05:42:44.313Z,17.60
2018-05-06T05:45:42.443Z,17.40
2018-05-06T05:48:12.291Z,17.30
2018-05-06T05:50:41.930Z,17.10
2018-05-06T05:53:11.620Z,17.10
2018-05-06T05:55:42.084Z,17.10
2018-05-06T05:58:11.728Z,17.00
2018-05-06T06:00:41.350Z,17.00
2018-05-06T06:03:11.224Z,17.00
2018-05-06T06:05:40.997Z,17.00
2018-05-06T06:08:10.811Z,17.00
2018-05-06T06:10:41.348Z,17.00
2018-05-06T06:13:11.924Z,17.00
2018-05-06T06:15:41.578Z,16.90
2018-05-06T06:18:12.005Z,17.00
2018-05-06T06:20:41.885Z,16.90
2018-05-06T06:23:11.556Z,17.00
2018-05-06T06:25:42.216Z,16.90
2018-05-06T06:28:11.851Z,16.90
2018-05-06T06:30:42.394Z,16.90
2018-05-06T06:33:12.972Z,16.80
2018-05-06T06:35:42.739Z,16.80
2018-05-06T06:38:13.100Z,16.80
2018-05-06T06:40:42.678Z,16.70
2018-05-06T06:43:12.395Z,16.80
2018-05-06T06:45:41.971Z,16.80
2018-05-06T06:48:11.771Z,16.70
2018-05-06T06:50:41.467Z,16.70
2018-05-06T06:53:11.440Z,16.70
2018-05-06T06:55:41.323Z,16.60
2018-05-06T06:58:11.089Z,16.60
2018-05-06T07:00:40.716Z,16.60
2018-05-06T07:03:10.426Z,16.50
2018-05-06T07:05:40.116Z,16.50
2018-05-06T07:08:09.672Z,16.50
2018-05-06T07:10:39.486Z,16.50
2018-05-06T07:13:09.094Z,16.40
2018-05-06T07:15:38.634Z,16.40
2018-05-06T07:18:08.338Z,16.40
2018-05-06T07:20:37.866Z,16.30
2018-05-06T07:23:07.510Z,16.30
2018-05-06T07:25:38.032Z,16.30
2018-05-06T07:28:07.679Z,16.30
2018-05-06T07:30:38.054Z,16.30
2018-05-06T07:33:07.713Z,16.30
2018-05-06T07:35:38.106Z,16.30
2018-05-06T07:38:07.757Z,16.30
2018-05-06T07:40:37.442Z,16.30
2018-05-06T07:43:07.149Z,16.30
2018-05-06T07:45:36.715Z,16.30
2018-05-06T07:51:27.439Z,16.20
2018-05-06T07:53:56.857Z,16.20
2018-05-06T07:56:26.210Z,16.20
2018-05-06T07:58:55.705Z,16.20
2018-05-06T08:04:50.762Z,16.10
2018-05-06T08:07:20.284Z,16.20
2018-05-06T08:09:49.859Z,16.20
2018-05-06T08:12:19.466Z,16.20
2018-05-06T08:14:48.913Z,16.20
2018-05-06T08:17:18.584Z,16.20
2018-05-06T08:19:48.234Z,16.20
2018-05-06T08:22:18.444Z,16.30
2018-05-06T08:24:48.052Z,16.20
2018-05-06T08:27:18.299Z,16.50
2018-05-06T08:29:47.959Z,16.40
2018-05-06T08:32:17.443Z,16.60
2018-05-06T08:38:08.152Z,16.60
2018-05-06T08:40:37.675Z,16.60
2018-05-06T08:43:07.186Z,16.60
2018-05-06T08:45:38.682Z,16.60
2018-05-06T08:48:10.145Z,16.60
2018-05-06T08:50:41.982Z,16.60
2018-05-06T08:53:14.352Z,16.60
2018-05-06T08:55:48.499Z,16.60
2018-05-06T08:59:01.698Z,16.60
2018-05-06T09:01:31.447Z,16.60
2018-05-06T09:04:01.086Z,16.60
2018-05-06T09:06:30.680Z,16.70
2018-05-06T09:09:00.443Z,16.70
2018-05-06T09:11:30.115Z,16.60
2018-05-06T09:17:21.234Z,16.50
2018-05-06T09:19:50.845Z,16.50
2018-05-06T09:22:20.354Z,16.50
2018-05-06T09:24:49.861Z,16.40
2018-05-06T09:27:19.386Z,16.30
2018-05-06T09:29:48.892Z,16.30
2018-05-06T09:32:18.338Z,16.20
2018-05-06T09:34:48.639Z,16.20
2018-05-06T09:37:18.799Z,16.20
2018-05-06T09:39:48.238Z,16.10
2018-05-06T09:42:17.579Z,16.20
2018-05-06T09:44:47.339Z,16.20
2018-05-06T09:47:16.686Z,16.20
2018-05-06T09:49:46.184Z,16.30
2018-05-06T09:52:15.577Z,16.30
2018-05-06T09:54:44.998Z,16.30
2018-05-06T09:57:14.328Z,16.30
2018-05-06T09:59:43.790Z,16.30
2018-05-06T10:02:13.250Z,16.30
2018-05-06T10:04:42.599Z,16.30
2018-05-06T10:07:12.867Z,16.30
2018-05-06T10:09:42.281Z,16.30
2018-05-06T10:12:11.682Z,16.30
2018-05-06T10:14:41.268Z,16.30
2018-05-06T10:17:11.401Z,16.30
2018-05-06T10:19:40.933Z,16.20
2018-05-06T10:22:10.273Z,16.30
2018-05-06T10:24:39.728Z,16.20
2018-05-06T10:27:09.176Z,16.20
2018-05-06T10:29:39.277Z,16.20
2018-05-06T10:32:08.838Z,16.10
2018-05-06T10:34:38.181Z,16.20
2018-05-06T10:37:07.627Z,16.10
2018-05-06T10:39:37.109Z,16.10
2018-05-06T10:42:07.351Z,16.00
2018-05-06T10:44:36.795Z,15.90
2018-05-06T10:47:06.225Z,16.00
2018-05-06T10:49:35.680Z,16.00
2018-05-06T10:52:05.122Z,16.00
2018-05-06T10:54:34.551Z,16.00
2018-05-06T10:57:03.895Z,16.10
2018-05-06T10:59:33.524Z,16.20
2018-05-06T11:02:02.873Z,16.20
2018-05-06T11:04:33.155Z,16.30
2018-05-06T11:07:02.597Z,16.30
2018-05-06T11:09:31.966Z,16.30
2018-05-06T11:12:01.455Z,16.30
2018-05-06T11:14:30.796Z,16.40
2018-05-06T11:17:00.212Z,16.40
2018-05-06T11:19:29.746Z,16.40
2018-05-06T11:21:59.306Z,16.30
2018-05-06T11:24:29.888Z,16.30
2018-05-06T11:26:59.350Z,16.30
2018-05-06T11:29:28.723Z,16.20
2018-05-06T11:31:58.564Z,16.20
2018-05-06T11:34:27.948Z,16.10
2018-05-06T11:36:57.547Z,16.10
2018-05-06T11:39:27.106Z,16.10
2018-05-06T11:41:56.723Z,16.10
2018-05-06T11:48:02.116Z,16.00
2018-05-06T11:50:31.849Z,16.20
2018-05-06T11:53:05.653Z,16.20
2018-05-06T11:55:36.102Z,16.20
2018-05-06T11:58:06.477Z,16.20
2018-05-06T12:04:06.479Z,16.20
2018-05-06T12:06:35.983Z,16.10
2018-05-06T12:09:10.615Z,16.10
2018-05-06T12:11:40.286Z,16.10
2018-05-06T12:14:09.656Z,16.20
2018-05-06T12:20:00.208Z,16.30
2018-05-06T12:22:29.589Z,16.30
2018-05-06T12:24:58.984Z,16.40
2018-05-06T12:27:28.491Z,16.30
2018-05-06T12:30:45.403Z,16.40
2018-05-06T12:33:14.948Z,16.40
2018-05-06T12:35:45.421Z,16.50
2018-05-06T12:38:15.044Z,16.60
2018-05-06T12:40:44.724Z,16.90
2018-05-06T12:43:55.979Z,17.00
2018-05-06T12:46:25.622Z,17.00
2018-05-06T12:48:54.957Z,17.00
2018-05-06T12:51:24.397Z,17.10
2018-05-06T12:53:53.775Z,17.30
2018-05-06T12:56:26.266Z,17.40
2018-05-06T12:58:55.654Z,17.50
2018-05-06T13:01:26.233Z,17.60
2018-05-06T13:03:55.583Z,17.50
2018-05-06T13:06:25.711Z,17.40
2018-05-06T13:12:17.120Z,17.50
2018-05-06T13:14:46.346Z,17.80
2018-05-06T13:17:15.609Z,18.00
2018-05-06T13:19:44.936Z,18.10
2018-05-06T13:25:40.525Z,18.20
2018-05-06T13:28:10.543Z,18.30
2018-05-06T13:30:40.155Z,18.40
2018-05-06T13:33:09.542Z,18.50
2018-05-06T13:35:38.964Z,18.70
2018-05-06T13:38:08.465Z,18.80
2018-05-06T13:40:38.073Z,19.10
2018-05-06T13:43:07.461Z,19.50
2018-05-06T13:45:37.023Z,19.90
2018-05-06T13:48:06.427Z,20.00
2018-05-06T13:50:35.847Z,20.50
2018-05-06T13:53:05.401Z,21.10
2018-05-06T13:55:34.897Z,21.80
2018-05-06T13:58:04.297Z,21.80
2018-05-06T14:00:34.020Z,21.80
2018-05-06T14:03:03.455Z,21.60
2018-05-06T14:05:32.859Z,20.80
2018-05-06T14:08:02.423Z,20.30
2018-05-06T14:10:31.836Z,20.10
2018-05-06T14:13:01.283Z,20.00
2018-05-06T14:15:30.738Z,19.90
2018-05-06T14:18:00.122Z,20.00
2018-05-06T14:20:29.723Z,19.90
2018-05-06T14:22:59.481Z,19.90
2018-05-06T14:25:29.631Z,19.90
2018-05-06T14:27:59.062Z,19.80
2018-05-06T14:30:29.025Z,19.90
2018-05-06T14:32:58.406Z,20.10
2018-05-06T14:35:27.794Z,20.20
2018-05-06T14:37:57.266Z,20.30
2018-05-06T14:40:26.671Z,20.50
2018-05-06T14:42:56.289Z,20.70
2018-05-06T14:45:25.928Z,21.10
2018-05-06T14:48:06.646Z,21.50
2018-05-06T14:51:10.208Z,22.10
2018-05-06T14:53:39.684Z,22.40
2018-05-06T14:56:09.144Z,22.70
2018-05-06T14:58:39.999Z,23.20
2018-05-06T15:01:09.467Z,23.60
2018-05-06T15:03:38.963Z,23.60
2018-05-06T15:06:08.488Z,23.30
2018-05-06T15:08:37.939Z,23.30
2018-05-06T15:11:08.299Z,23.50
2018-05-06T15:13:37.787Z,23.40
2018-05-06T15:19:38.431Z,22.80
2018-05-06T15:22:07.848Z,22.70
2018-05-06T15:24:37.176Z,22.40
2018-05-06T15:27:07.472Z,22.30
2018-05-06T15:29:36.992Z,22.30
2018-05-06T15:32:14.354Z,22.30
2018-05-06T15:34:43.876Z,22.40
2018-05-06T15:37:13.275Z,22.80
2018-05-06T15:39:42.616Z,22.90
2018-05-06T15:42:11.978Z,22.70
2018-05-06T15:48:12.375Z,22.40
2018-05-06T15:50:41.688Z,22.20
2018-05-06T15:53:11.098Z,22.10
2018-05-06T15:55:40.596Z,22.00
2018-05-06T16:01:31.708Z,22.20
2018-05-06T16:04:20.327Z,22.70
2018-05-06T16:06:50.309Z,22.80
2018-05-06T16:09:20.056Z,22.80
2018-05-06T16:11:49.699Z,22.80
2018-05-06T16:14:19.578Z,22.70
2018-05-06T16:16:49.203Z,22.70
2018-05-06T16:19:19.587Z,23.30
2018-05-06T16:21:49.499Z,23.30
2018-05-06T16:24:20.248Z,23.50
2018-05-06T16:26:55.507Z,23.30
2018-05-06T16:29:25.781Z,23.40
2018-05-06T16:32:05.095Z,23.30
2018-05-06T16:34:42.532Z,23.20
2018-05-06T16:37:12.117Z,23.10
2018-05-06T16:39:45.049Z,23.20
2018-05-06T16:42:14.588Z,23.10
2018-05-06T16:44:44.294Z,22.90
2018-05-06T16:47:13.884Z,22.70
2018-05-06T16:49:44.352Z,22.90
2018-05-06T16:52:13.884Z,22.80
2018-05-06T16:54:43.552Z,23.10
2018-05-06T16:57:13.385Z,23.40
2018-05-06T16:59:43.507Z,23.60
2018-05-06T17:02:14.039Z,24.10
2018-05-06T17:04:44.267Z,24.10
2018-05-06T17:07:15.671Z,24.30
2018-05-06T17:09:46.011Z,24.20
2018-05-06T17:12:15.993Z,24.10
2018-05-06T17:14:47.372Z,24.30
2018-05-06T17:17:17.281Z,24.40
2018-05-06T17:19:47.104Z,24.50
2018-05-06T17:22:16.756Z,24.50
2018-05-06T17:24:46.359Z,24.60
2018-05-06T17:27:16.255Z,24.80
2018-05-06T17:29:49.567Z,24.40
2018-05-06T17:32:19.777Z,24.30
2018-05-06T17:35:05.436Z,24.30
2018-05-06T17:37:35.693Z,24.20
2018-05-06T17:40:05.233Z,23.90
2018-05-06T17:42:34.947Z,23.80
2018-05-06T17:45:05.689Z,24.10
2018-05-06T17:47:36.633Z,24.10
2018-05-06T17:50:07.031Z,24.70
2018-05-06T17:52:36.761Z,24.70
2018-05-06T17:55:07.203Z,24.90
2018-05-06T17:57:36.967Z,24.90
2018-05-06T18:00:06.726Z,24.80
2018-05-06T18:02:36.349Z,24.60
2018-05-06T18:05:06.223Z,24.70
2018-05-06T18:07:35.892Z,24.70
2018-05-06T18:10:32.794Z,24.70
2018-05-06T18:13:02.233Z,24.60
2018-05-06T18:15:32.594Z,24.70
2018-05-06T18:18:02.795Z,24.30
2018-05-06T18:20:32.188Z,24.20
2018-05-06T18:23:01.607Z,24.10
2018-05-06T18:25:31.168Z,24.50
2018-05-06T18:28:00.521Z,24.60
2018-05-06T18:30:30.868Z,24.60
2018-05-06T18:33:00.251Z,24.50
2018-05-06T18:35:31.549Z,24.40
2018-05-06T18:38:00.908Z,24.50
2018-05-06T18:40:30.335Z,24.60
2018-05-06T18:42:59.788Z,24.40
2018-05-06T18:45:29.155Z,24.30
2018-05-06T18:47:59.394Z,24.00
2018-05-06T18:54:00.899Z,23.40
2018-05-06T18:56:37.882Z,23.80
2018-05-06T18:59:07.750Z,23.70
2018-05-06T19:01:37.821Z,23.70
2018-05-06T19:04:07.491Z,23.60
2018-05-06T19:06:37.051Z,23.40
2018-05-06T19:09:06.834Z,23.50
2018-05-06T19:11:36.311Z,23.40
2018-05-06T19:14:06.585Z,23.40
2018-05-06T19:16:36.048Z,23.50
2018-05-06T19:22:27.682Z,23.60
2018-05-06T19:24:57.054Z,23.40
2018-05-06T19:27:26.467Z,23.50
2018-05-06T19:29:56.918Z,23.40
2018-05-06T19:32:27.977Z,23.60
2018-05-06T19:35:00.069Z,23.70
2018-05-06T19:37:45.906Z,23.70
2018-05-06T19:40:16.246Z,23.70
2018-05-06T19:42:48.057Z,23.70
2018-05-06T19:45:26.571Z,23.60
2018-05-06T19:47:57.333Z,23.50
2018-05-06T19:50:29.160Z,23.70
2018-05-06T19:52:58.633Z,23.70
2018-05-06T19:55:30.940Z,23.70
2018-05-06T19:58:01.160Z,24.00
2018-05-06T20:00:32.284Z,24.20
2018-05-06T20:03:03.409Z,24.50
2018-05-06T20:05:32.778Z,24.40
2018-05-06T20:08:03.307Z,24.40
2018-05-06T20:10:33.028Z,24.40
2018-05-06T20:13:03.412Z,24.60
2018-05-06T20:15:32.794Z,24.40
2018-05-06T20:18:02.186Z,24.40
2018-05-06T20:20:32.189Z,24.70
2018-05-06T20:23:01.695Z,25.10
2018-05-06T20:25:31.069Z,25.70
2018-05-06T20:28:00.459Z,26.40
2018-05-06T20:30:29.898Z,26.10
2018-05-06T20:32:59.219Z,26.00
2018-05-06T20:35:30.079Z,25.70
2018-05-06T20:37:59.422Z,25.70
2018-05-06T20:40:28.835Z,25.70
2018-05-06T20:42:58.813Z,25.80
2018-05-06T20:45:28.258Z,25.90
2018-05-06T20:47:58.340Z,25.50
2018-05-06T20:50:27.810Z,25.40
2018-05-06T20:52:57.158Z,25.40
2018-05-06T20:55:26.752Z,25.50
2018-05-06T20:57:56.205Z,25.50
2018-05-06T21:00:25.735Z,25.10
2018-05-06T21:02:55.211Z,24.80
2018-05-06T21:05:24.648Z,24.60
2018-05-06T21:07:55.842Z,24.50
2018-05-06T21:10:30.242Z,24.50
2018-05-06T21:12:59.743Z,24.50
2018-05-06T21:15:29.102Z,24.30
2018-05-06T21:17:58.409Z,24.30
2018-05-06T21:20:27.792Z,24.40
2018-05-06T21:23:00.922Z,24.60
2018-05-06T21:25:31.523Z,24.50
2018-05-06T21:28:01.082Z,24.30
2018-05-06T21:30:30.412Z,24.00
2018-05-06T21:36:21.508Z,23.90
2018-05-06T21:38:50.998Z,24.00
2018-05-06T21:41:20.635Z,24.00
2018-05-06T21:43:50.244Z,23.90
2018-05-06T21:46:21.165Z,23.60
2018-05-06T21:48:53.699Z,23.70
2018-05-06T21:51:23.309Z,23.50
2018-05-06T21:53:55.832Z,23.60
2018-05-06T21:56:25.310Z,23.60
2018-05-06T21:58:55.717Z,23.60
2018-05-06T22:01:26.049Z,23.60
2018-05-06T22:07:20.713Z,23.50
2018-05-06T22:09:50.444Z,23.30
2018-05-06T22:12:20.277Z,23.30
2018-05-06T22:14:51.005Z,23.30
2018-05-06T22:17:21.022Z,23.20
2018-05-06T22:19:50.663Z,23.30
2018-05-06T22:25:41.799Z,23.30
2018-05-06T22:28:11.734Z,23.20
2018-05-06T22:30:41.121Z,23.00
2018-05-06T22:33:15.131Z,22.80
2018-05-06T22:35:45.050Z,22.90
2018-05-06T22:38:21.953Z,23.00
2018-05-06T22:40:51.475Z,22.90
2018-05-06T22:43:20.873Z,22.80
2018-05-06T22:45:50.251Z,22.80
2018-05-06T22:48:19.615Z,22.70
2018-05-06T22:50:49.083Z,22.50
2018-05-06T22:53:20.116Z,22.60
2018-05-06T22:55:49.654Z,22.60
2018-05-06T22:58:19.094Z,22.80
2018-05-06T23:00:48.634Z,23.10
2018-05-06T23:03:18.106Z,23.30
2018-05-06T23:05:47.491Z,23.10
2018-05-06T23:08:17.664Z,22.70
2018-05-06T23:10:47.240Z,22.70
2018-05-06T23:13:16.683Z,22.70
2018-05-06T23:15:46.092Z,22.60
2018-05-06T23:18:15.670Z,22.50
2018-05-06T23:20:45.808Z,22.40
2018-05-06T23:23:15.306Z,22.40
2018-05-06T23:25:44.708Z,22.60
2018-05-06T23:28:14.146Z,22.70
2018-05-06T23:30:43.721Z,22.60
2018-05-06T23:33:13.182Z,22.40
2018-05-06T23:35:43.587Z,22.30
2018-05-06T23:38:13.236Z,22.30
2018-05-06T23:40:42.612Z,22.30
2018-05-06T23:43:12.050Z,22.20
2018-05-06T23:45:43.064Z,22.10
2018-05-06T23:48:13.364Z,22.00
2018-05-06T23:50:42.895Z,21.90
2018-05-06T23:53:13.045Z,21.80
2018-05-06T23:55:42.505Z,21.80
2018-05-06T23:58:12.853Z,21.70
